createdAt,value
2023-04-04T00:00:14.844Z,1001.46
2023-04-04T00:01:14.832Z,1001.46
2023-04-04T00:02:14.779Z,1001.50
2023-04-04T00:03:14.910Z,1001.42
2023-04-04T00:04:14.832Z,1001.49
2023-04-04T00:05:14.777Z,1001.46
2023-04-04T00:06:14.782Z,1001.41
2023-04-04T00:07:14.766Z,1001.39
2023-04-04T00:08:14.749Z,1001.38
2023-04-04T00:09:14.766Z,1001.41
2023-04-04T00:10:14.756Z,1001.37
2023-04-04T00:11:14.754Z,1001.46
2023-04-04T00:12:14.746Z,1001.46
2023-04-04T00:13:14.714Z,1001.46
2023-04-04T00:14:14.734Z,1001.41
2023-04-04T00:15:14.690Z,1001.43
2023-04-04T00:16:14.712Z,1001.40
2023-04-04T00:17:14.664Z,1001.40
2023-04-04T00:18:14.675Z,1001.39
2023-04-04T00:19:14.653Z,1001.42
2023-04-04T00:20:14.636Z,1001.41
2023-04-04T00:21:14.643Z,1001.43
2023-04-04T00:22:14.632Z,1001.46
2023-04-04T00:23:14.674Z,1001.43
2023-04-04T00:24:14.588Z,1001.47
2023-04-04T00:25:14.631Z,1001.41
2023-04-04T00:26:14.580Z,1001.38
2023-04-04T00:27:14.585Z,1001.40
2023-04-04T00:28:14.590Z,1001.40
2023-04-04T00:29:14.554Z,1001.40
2023-04-04T00:30:14.575Z,1001.41
2023-04-04T00:31:14.588Z,1001.38
2023-04-04T00:32:14.592Z,1001.34
2023-04-04T00:33:14.558Z,1001.36
2023-04-04T00:34:14.499Z,1001.33
2023-04-04T00:35:14.515Z,1001.32
2023-04-04T00:36:14.600Z,1001.40
2023-04-04T00:37:14.475Z,1001.38
2023-04-04T00:38:14.503Z,1001.39
2023-04-04T00:39:14.486Z,1001.37
2023-04-04T00:40:14.455Z,1001.33
2023-04-04T00:41:14.462Z,1001.28
2023-04-04T00:42:14.434Z,1001.24
2023-04-04T00:43:14.421Z,1001.27
2023-04-04T00:44:14.431Z,1001.28
2023-04-04T00:45:14.422Z,1001.30
2023-04-04T00:46:14.441Z,1001.25
2023-04-04T00:47:14.419Z,1001.27
2023-04-04T00:48:14.397Z,1001.30
2023-04-04T00:49:14.419Z,1001.34
2023-04-04T00:50:14.374Z,1001.23
2023-04-04T00:51:14.355Z,1001.26
2023-04-04T00:52:14.382Z,1001.24
2023-04-04T00:53:14.365Z,1001.25
2023-04-04T00:54:14.317Z,1001.27
2023-04-04T00:55:14.303Z,1001.37
2023-04-04T00:56:14.295Z,1001.20
2023-04-04T00:57:14.311Z,1001.20
2023-04-04T00:58:14.245Z,1001.18
2023-04-04T00:59:14.331Z,1001.17
2023-04-04T01:00:14.295Z,1001.17
2023-04-04T01:01:14.297Z,1001.26
2023-04-04T01:02:14.284Z,1001.22
2023-04-04T01:03:14.358Z,1001.18
2023-04-04T01:04:14.255Z,1001.22
2023-04-04T01:05:14.228Z,1001.16
2023-04-04T01:06:14.245Z,1001.17
2023-04-04T01:07:14.245Z,1001.18
2023-04-04T01:08:14.167Z,1001.16
2023-04-04T01:09:15.188Z,1001.19
2023-04-04T01:10:14.178Z,1001.20
2023-04-04T01:11:14.141Z,1001.14
2023-04-04T01:12:14.227Z,1001.15
2023-04-04T01:13:14.129Z,1001.12
2023-04-04T01:14:14.119Z,1001.13
2023-04-04T01:15:14.122Z,1001.17
2023-04-04T01:16:14.164Z,1001.13
2023-04-04T01:17:14.094Z,1001.16
2023-04-04T01:18:14.127Z,1001.18
2023-04-04T01:19:14.094Z,1001.12
2023-04-04T01:20:14.117Z,1001.08
2023-04-04T01:21:14.060Z,1001.10
2023-04-04T01:22:14.031Z,1001.07
2023-04-04T01:23:14.094Z,1001.10
2023-04-04T01:24:14.020Z,1001.09
2023-04-04T01:25:14.031Z,1001.08
2023-04-04T01:26:14.011Z,1001.05
2023-04-04T01:27:14.023Z,1001.09
2023-04-04T01:28:13.992Z,1001.07
2023-04-04T01:29:13.964Z,1001.12
2023-04-04T01:30:13.959Z,1001.07
2023-04-04T01:31:14.006Z,1001.04
2023-04-04T01:32:13.976Z,1001.10
2023-04-04T01:33:13.969Z,1001.15
2023-04-04T01:34:13.942Z,1001.16
2023-04-04T01:35:13.919Z,1001.08
2023-04-04T01:36:15.652Z,1001.04
2023-04-04T01:37:13.941Z,1001.03
2023-04-04T01:38:13.890Z,1001.08
2023-04-04T01:39:13.898Z,1001.10
2023-04-04T01:40:13.877Z,1001.08
2023-04-04T01:41:13.853Z,1001.09
2023-04-04T01:42:13.867Z,1001.07
2023-04-04T01:43:13.863Z,1001.13
2023-04-04T01:44:13.818Z,1001.07
2023-04-04T01:45:13.822Z,1001.02
2023-04-04T01:46:13.880Z,1001.12
2023-04-04T01:47:13.798Z,1001.03
2023-04-04T01:48:14.809Z,1001.03
2023-04-04T01:49:13.866Z,1001.04
2023-04-04T01:50:13.753Z,1001.00
2023-04-04T01:51:13.775Z,1001.03
2023-04-04T01:52:13.746Z,1001.01
2023-04-04T01:53:13.789Z,1001.03
2023-04-04T01:54:13.752Z,1000.97
2023-04-04T01:55:13.801Z,1001.04
2023-04-04T01:56:13.735Z,1001.05
2023-04-04T01:57:13.701Z,1001.09
2023-04-04T01:58:13.704Z,1001.00
2023-04-04T01:59:13.806Z,1001.01
2023-04-04T02:00:13.704Z,1001.01
2023-04-04T02:01:13.736Z,1000.96
2023-04-04T02:02:13.684Z,1001.01
2023-04-04T02:03:13.667Z,1000.96
2023-04-04T02:04:13.696Z,1000.96
2023-04-04T02:05:13.665Z,1000.97
2023-04-04T02:06:13.663Z,1000.94
2023-04-04T02:07:13.619Z,1000.99
2023-04-04T02:08:13.678Z,1001.02
2023-04-04T02:09:13.636Z,1001.03
2023-04-04T02:10:13.627Z,1000.98
2023-04-04T02:11:13.612Z,1001.01
2023-04-04T02:12:13.562Z,1000.99
2023-04-04T02:13:13.587Z,1001.00
2023-04-04T02:14:13.595Z,1001.05
2023-04-04T02:15:13.557Z,1001.00
2023-04-04T02:16:13.584Z,1000.96
2023-04-04T02:17:13.549Z,1001.00
2023-04-04T02:18:13.522Z,1000.99
2023-04-04T02:19:13.526Z,1001.00
2023-04-04T02:20:45.393Z,1000.99
2023-04-04T02:21:13.473Z,1001.02
2023-04-04T02:22:13.478Z,1000.89
2023-04-04T02:23:13.465Z,1000.96
2023-04-04T02:24:13.431Z,1000.94
2023-04-04T02:25:14.425Z,1000.96
2023-04-04T02:26:13.436Z,1000.94
2023-04-04T02:27:13.427Z,1000.91
2023-04-04T02:28:13.402Z,1000.94
2023-04-04T02:29:13.404Z,1000.92
2023-04-04T02:30:13.409Z,1000.89
2023-04-04T02:31:13.397Z,1000.85
2023-04-04T02:32:14.397Z,1000.90
2023-04-04T02:33:13.342Z,1000.84
2023-04-04T02:34:13.337Z,1000.90
2023-04-04T02:35:13.355Z,1000.86
2023-04-04T02:36:13.387Z,1000.80
2023-04-04T02:37:13.353Z,1000.80
2023-04-04T02:38:13.315Z,1000.80
2023-04-04T02:39:13.284Z,1000.76
2023-04-04T02:40:13.440Z,1000.83
2023-04-04T02:41:13.261Z,1000.81
2023-04-04T02:42:13.292Z,1000.80
2023-04-04T02:43:13.257Z,1000.84
2023-04-04T02:44:13.258Z,1000.84
2023-04-04T02:45:13.245Z,1000.76
2023-04-04T02:46:21.195Z,1000.80
2023-04-04T02:47:15.234Z,1000.78
2023-04-04T02:48:13.226Z,1000.76
2023-04-04T02:49:13.192Z,1000.71
2023-04-04T02:50:13.196Z,1000.73
2023-04-04T02:51:13.170Z,1000.75
2023-04-04T02:52:13.160Z,1000.77
2023-04-04T02:53:13.178Z,1000.69
2023-04-04T02:54:13.142Z,1000.68
2023-04-04T02:55:13.197Z,1000.69
2023-04-04T02:56:13.112Z,1000.69
2023-04-04T02:57:13.132Z,1000.67
2023-04-04T02:58:13.108Z,1000.66
2023-04-04T02:59:13.099Z,1000.68
2023-04-04T03:00:13.098Z,1000.66
2023-04-04T03:01:13.107Z,1000.65
2023-04-04T03:02:13.189Z,1000.66
2023-04-04T03:03:13.204Z,1000.69
2023-04-04T03:04:13.065Z,1000.63
2023-04-04T03:05:13.050Z,1000.58
2023-04-04T03:06:13.035Z,1000.62
2023-04-04T03:07:13.025Z,1000.74
2023-04-04T03:08:13.040Z,1000.58
2023-04-04T03:09:12.994Z,1000.56
2023-04-04T03:10:13.054Z,1000.55
2023-04-04T03:11:13.035Z,1000.50
2023-04-04T03:12:12.965Z,1000.59
2023-04-04T03:13:12.992Z,1000.59
2023-04-04T03:14:12.965Z,1000.59
2023-04-04T03:15:12.986Z,1000.60
2023-04-04T03:16:12.960Z,1000.61
2023-04-04T03:17:12.925Z,1000.58
2023-04-04T03:18:12.919Z,1000.58
2023-04-04T03:19:12.935Z,1000.61
2023-04-04T03:20:12.920Z,1000.54
2023-04-04T03:21:13.898Z,1000.52
2023-04-04T03:22:12.919Z,1000.52
2023-04-04T03:23:12.859Z,1000.52
2023-04-04T03:24:12.846Z,1000.56
2023-04-04T03:25:12.843Z,1000.56
2023-04-04T03:26:12.862Z,1000.57
2023-04-04T03:27:12.890Z,1000.53
2023-04-04T03:28:12.827Z,1000.52
2023-04-04T03:29:12.830Z,1000.46
2023-04-04T03:30:12.825Z,1000.45
2023-04-04T03:31:12.800Z,1000.47
2023-04-04T03:32:12.792Z,1000.49
2023-04-04T03:33:13.785Z,1000.55
2023-04-04T03:34:12.758Z,1000.52
2023-04-04T03:35:12.789Z,1000.46
2023-04-04T03:36:12.942Z,1000.49
2023-04-04T03:37:12.738Z,1000.51
2023-04-04T03:38:12.742Z,1000.46
2023-04-04T03:39:12.727Z,1000.47
2023-04-04T03:40:12.755Z,1000.45
2023-04-04T03:41:12.723Z,1000.42
2023-04-04T03:42:12.793Z,1000.46
2023-04-04T03:43:12.691Z,1000.44
2023-04-04T03:44:12.724Z,1000.43
2023-04-04T03:45:12.650Z,1000.37
2023-04-04T03:46:12.688Z,1000.40
2023-04-04T03:47:12.668Z,1000.41
2023-04-04T03:48:12.670Z,1000.47
2023-04-04T03:49:12.633Z,1000.42
2023-04-04T03:50:12.656Z,1000.37
2023-04-04T03:51:12.616Z,1000.39
2023-04-04T03:52:12.603Z,1000.41
2023-04-04T03:53:12.610Z,1000.34
2023-04-04T03:54:12.605Z,1000.33
2023-04-04T03:55:12.570Z,1000.31
2023-04-04T03:56:12.631Z,1000.28
2023-04-04T03:57:12.532Z,1000.28
2023-04-04T03:58:12.526Z,1000.30
2023-04-04T03:59:12.562Z,1000.29
2023-04-04T04:00:12.581Z,1000.38
2023-04-04T04:01:12.519Z,1000.32
2023-04-04T04:02:12.546Z,1000.33
2023-04-04T04:03:14.705Z,1000.34
2023-04-04T04:04:12.508Z,1000.35
2023-04-04T04:05:12.486Z,1000.35
2023-04-04T04:06:12.490Z,1000.25
2023-04-04T04:07:12.437Z,1000.33
2023-04-04T04:08:12.455Z,1000.29
2023-04-04T04:09:12.501Z,1000.30
2023-04-04T04:10:12.444Z,1000.28
2023-04-04T04:11:12.550Z,1000.32
2023-04-04T04:12:12.444Z,1000.30
2023-04-04T04:13:12.454Z,1000.26
2023-04-04T04:14:12.405Z,1000.28
2023-04-04T04:15:12.497Z,1000.32
2023-04-04T04:16:12.483Z,1000.34
2023-04-04T04:17:12.359Z,1000.37
2023-04-04T04:18:12.363Z,1000.34
2023-04-04T04:19:12.424Z,1000.30
2023-04-04T04:20:12.354Z,1000.31
2023-04-04T04:21:12.363Z,1000.35
2023-04-04T04:22:12.305Z,1000.35
2023-04-04T04:23:12.479Z,1000.36
2023-04-04T04:24:12.305Z,1000.37
2023-04-04T04:25:12.275Z,1000.34
2023-04-04T04:26:12.301Z,1000.34
2023-04-04T04:27:12.321Z,1000.35
2023-04-04T04:28:12.246Z,1000.33
2023-04-04T04:29:12.238Z,1000.33
2023-04-04T04:30:12.290Z,1000.29
2023-04-04T04:31:12.303Z,1000.28
2023-04-04T04:32:12.252Z,1000.33
2023-04-04T04:33:12.252Z,1000.36
2023-04-04T04:34:12.280Z,1000.34
2023-04-04T04:35:12.216Z,1000.23
2023-04-04T04:36:12.242Z,1000.30
2023-04-04T04:37:12.185Z,1000.35
2023-04-04T04:38:12.285Z,1000.28
2023-04-04T04:39:12.171Z,1000.28
2023-04-04T04:40:12.176Z,1000.26
2023-04-04T04:41:12.188Z,1000.21
2023-04-04T04:42:12.211Z,1000.22
2023-04-04T04:43:12.174Z,1000.23
2023-04-04T04:44:12.112Z,1000.22
2023-04-04T04:45:12.132Z,1000.21
2023-04-04T04:46:12.108Z,1000.26
2023-04-04T04:47:12.110Z,1000.24
2023-04-04T04:48:12.150Z,1000.21
2023-04-04T04:49:12.159Z,1000.26
2023-04-04T04:50:12.077Z,1000.22
2023-04-04T04:51:12.073Z,1000.26
2023-04-04T04:52:12.046Z,1000.21
2023-04-04T04:53:12.035Z,1000.16
2023-04-04T04:54:12.075Z,1000.14
2023-04-04T04:55:12.031Z,1000.16
2023-04-04T04:56:12.042Z,1000.16
2023-04-04T04:57:12.001Z,1000.20
2023-04-04T04:58:11.999Z,1000.17
2023-04-04T04:59:11.982Z,1000.22
2023-04-04T05:00:11.971Z,1000.19
2023-04-04T05:01:12.022Z,1000.19
2023-04-04T05:02:11.994Z,1000.10
2023-04-04T05:03:11.987Z,1000.13
2023-04-04T05:04:11.953Z,1000.19
2023-04-04T05:05:11.904Z,1000.20
2023-04-04T05:06:11.908Z,1000.22
2023-04-04T05:07:11.962Z,1000.23
2023-04-04T05:08:11.868Z,1000.21
2023-04-04T05:09:11.894Z,1000.19
2023-04-04T05:10:11.912Z,1000.21
2023-04-04T05:11:11.867Z,1000.20
2023-04-04T05:12:11.889Z,1000.19
2023-04-04T05:13:11.828Z,1000.27
2023-04-04T05:14:11.883Z,1000.26
2023-04-04T05:15:11.794Z,1000.22
2023-04-04T05:16:11.838Z,1000.32
2023-04-04T05:17:11.830Z,1000.32
2023-04-04T05:18:11.825Z,1000.34
2023-04-04T05:19:11.763Z,1000.35
2023-04-04T05:20:11.769Z,1000.34
2023-04-04T05:21:11.765Z,1000.30
2023-04-04T05:22:11.756Z,1000.31
2023-04-04T05:23:11.736Z,1000.31
2023-04-04T05:24:11.760Z,1000.37
2023-04-04T05:25:11.707Z,1000.38
2023-04-04T05:26:11.748Z,1000.28
2023-04-04T05:27:11.725Z,1000.34
2023-04-04T05:28:11.688Z,1000.25
2023-04-04T05:29:11.728Z,1000.29
2023-04-04T05:30:11.661Z,1000.32
2023-04-04T05:31:11.658Z,1000.24
2023-04-04T05:32:11.704Z,1000.28
2023-04-04T05:33:11.715Z,1000.26
2023-04-04T05:34:11.656Z,1000.34
2023-04-04T05:35:11.620Z,1000.22
2023-04-04T05:36:11.675Z,1000.26
2023-04-04T05:37:11.606Z,1000.25
2023-04-04T05:38:11.595Z,1000.31
2023-04-04T05:39:11.584Z,1000.29
2023-04-04T05:40:11.592Z,1000.44
2023-04-04T05:41:11.569Z,1000.36
2023-04-04T05:42:11.620Z,1000.32
2023-04-04T05:43:11.558Z,1000.36
2023-04-04T05:44:11.537Z,1000.32
2023-04-04T05:45:11.506Z,1000.26
2023-04-04T05:46:11.558Z,1000.20
2023-04-04T05:47:11.548Z,1000.33
2023-04-04T05:48:11.502Z,1000.37
2023-04-04T05:49:11.502Z,1000.36
2023-04-04T05:50:11.491Z,1000.27
2023-04-04T05:51:12.333Z,1000.26
2023-04-04T05:52:11.452Z,1000.34
2023-04-04T05:53:11.449Z,1000.26
2023-04-04T05:54:11.479Z,1000.18
2023-04-04T05:55:11.451Z,1000.28
2023-04-04T05:56:11.458Z,1000.37
2023-04-04T05:57:11.464Z,1000.34
2023-04-04T05:58:12.581Z,1000.33
2023-04-04T05:59:12.481Z,1000.37
2023-04-04T06:00:11.392Z,1000.41
2023-04-04T06:01:11.381Z,1000.39
2023-04-04T06:02:11.416Z,1000.41
2023-04-04T06:03:11.411Z,1000.42
2023-04-04T06:04:11.343Z,1000.43
2023-04-04T06:05:11.346Z,1000.42
2023-04-04T06:06:11.388Z,1000.44
2023-04-04T06:07:11.297Z,1000.38
2023-04-04T06:08:11.342Z,1000.40
2023-04-04T06:09:11.311Z,1000.38
2023-04-04T06:10:11.294Z,1000.27
2023-04-04T06:11:11.273Z,1000.30
2023-04-04T06:12:11.282Z,1000.27
2023-04-04T06:13:11.366Z,1000.28
2023-04-04T06:14:12.162Z,1000.34
2023-04-04T06:15:11.258Z,1000.34
2023-04-04T06:16:11.290Z,1000.31
2023-04-04T06:17:11.227Z,1000.24
2023-04-04T06:18:11.202Z,1000.27
2023-04-04T06:19:11.215Z,1000.32
2023-04-04T06:20:11.191Z,1000.33
2023-04-04T06:21:11.186Z,1000.33
2023-04-04T06:22:11.161Z,1000.37
2023-04-04T06:23:11.288Z,1000.36
2023-04-04T06:24:11.178Z,1000.32
2023-04-04T06:25:11.134Z,1000.46
2023-04-04T06:26:11.128Z,1000.47
2023-04-04T06:27:11.174Z,1000.50
2023-04-04T06:28:11.124Z,1000.54
2023-04-04T06:29:11.116Z,1000.53
2023-04-04T06:30:11.983Z,1000.55
2023-04-04T06:31:12.160Z,1000.60
2023-04-04T06:32:11.066Z,1000.54
2023-04-04T06:33:11.102Z,1000.55
2023-04-04T06:34:11.082Z,1000.50
2023-04-04T06:35:11.032Z,1000.50
2023-04-04T06:36:11.065Z,1000.46
2023-04-04T06:37:11.017Z,1000.45
2023-04-04T06:38:10.987Z,1000.53
2023-04-04T06:39:10.999Z,1000.45
2023-04-04T06:40:11.041Z,1000.54
2023-04-04T06:41:11.013Z,1000.50
2023-04-04T06:42:10.946Z,1000.54
2023-04-04T06:43:11.994Z,1000.51
2023-04-04T06:44:10.959Z,1000.49
2023-04-04T06:45:10.932Z,1000.47
2023-04-04T06:46:10.980Z,1000.51
2023-04-04T06:47:10.924Z,1000.51
2023-04-04T06:48:10.920Z,1000.54
2023-04-04T06:49:10.927Z,1000.57
2023-04-04T06:50:10.926Z,1000.48
2023-04-04T06:51:10.893Z,1000.53
2023-04-04T06:52:10.888Z,1000.52
2023-04-04T06:53:10.875Z,1000.50
2023-04-04T06:54:10.874Z,1000.48
2023-04-04T06:55:10.831Z,1000.56
2023-04-04T06:56:10.814Z,1000.55
2023-04-04T06:57:10.857Z,1000.53
2023-04-04T06:58:10.851Z,1000.57
2023-04-04T06:59:10.813Z,1000.52
2023-04-04T07:00:10.802Z,1000.62
2023-04-04T07:01:10.854Z,1000.56
2023-04-04T07:02:10.791Z,1000.63
2023-04-04T07:03:10.855Z,1000.60
2023-04-04T07:04:10.761Z,1000.58
2023-04-04T07:05:10.766Z,1000.50
2023-04-04T07:06:10.737Z,1000.51
2023-04-04T07:07:10.743Z,1000.48
2023-04-04T07:08:10.719Z,1000.46
2023-04-04T07:09:22.029Z,1000.52
2023-04-04T07:10:12.720Z,1000.52
2023-04-04T07:11:10.673Z,1000.47
2023-04-04T07:12:10.709Z,1000.44
2023-04-04T07:13:10.711Z,1000.39
2023-04-04T07:14:10.661Z,1000.51
2023-04-04T07:15:10.653Z,1000.42
2023-04-04T07:16:10.678Z,1000.46
2023-04-04T07:17:21.123Z,1000.42
2023-04-04T07:18:11.735Z,1000.41
2023-04-04T07:19:10.739Z,1000.39
2023-04-04T07:20:10.723Z,1000.36
2023-04-04T07:21:10.622Z,1000.37
2023-04-04T07:22:10.590Z,1000.38
2023-04-04T07:23:10.656Z,1000.35
2023-04-04T07:24:10.581Z,1000.33
2023-04-04T07:25:10.559Z,1000.32
2023-04-04T07:26:10.580Z,1000.30
2023-04-04T07:27:10.554Z,1000.42
2023-04-04T07:28:13.268Z,1000.24
2023-04-04T07:29:11.518Z,1000.29
2023-04-04T07:30:10.509Z,1000.31
2023-04-04T07:31:10.477Z,1000.36
2023-04-04T07:32:10.526Z,1000.35
2023-04-04T07:33:10.746Z,1000.17
2023-04-04T07:34:10.444Z,1000.25
2023-04-04T07:35:10.442Z,1000.26
2023-04-04T07:36:10.478Z,1000.27
2023-04-04T07:37:10.486Z,1000.32
2023-04-04T07:38:10.531Z,1000.36
2023-04-04T07:39:10.442Z,1000.43
2023-04-04T07:40:11.408Z,1000.37
2023-04-04T07:41:10.402Z,1000.37
2023-04-04T07:42:10.394Z,1000.36
2023-04-04T07:43:10.563Z,1000.41
2023-04-04T07:44:10.380Z,1000.44
2023-04-04T07:45:10.353Z,1000.37
2023-04-04T07:46:10.375Z,1000.33
2023-04-04T07:47:10.642Z,1000.27
2023-04-04T07:48:10.307Z,1000.36
2023-04-04T07:49:10.309Z,1000.33
2023-04-04T07:50:10.369Z,1000.42
2023-04-04T07:51:10.291Z,1000.39
2023-04-04T07:52:10.287Z,1000.35
2023-04-04T07:53:10.292Z,1000.42
2023-04-04T07:54:10.264Z,1000.39
2023-04-04T07:55:10.254Z,1000.53
2023-04-04T07:56:10.358Z,1000.37
2023-04-04T07:57:10.286Z,1000.35
2023-04-04T07:58:10.196Z,1000.35
2023-04-04T07:59:10.232Z,1000.43
2023-04-04T08:00:10.274Z,1000.41
2023-04-04T08:01:10.193Z,1000.53
2023-04-04T08:02:10.233Z,1000.38
2023-04-04T08:03:10.262Z,1000.44
2023-04-04T08:04:10.186Z,1000.42
2023-04-04T08:05:10.146Z,1000.39
2023-04-04T08:06:10.158Z,1000.36
2023-04-04T08:07:10.134Z,1000.40
2023-04-04T08:08:10.153Z,1000.42
2023-04-04T08:09:10.111Z,1000.41
2023-04-04T08:10:10.108Z,1000.35
2023-04-04T08:11:10.104Z,1000.40
2023-04-04T08:12:10.111Z,1000.42
2023-04-04T08:13:10.064Z,1000.47
2023-04-04T08:14:11.077Z,1000.46
2023-04-04T08:15:10.055Z,1000.42
2023-04-04T08:16:10.150Z,1000.41
2023-04-04T08:17:10.049Z,1000.41
2023-04-04T08:18:10.042Z,1000.40
2023-04-04T08:19:10.063Z,1000.45
2023-04-04T08:21:41.910Z,1000.44
2023-04-04T08:22:09.958Z,1000.44
2023-04-04T08:23:10.094Z,1000.46
2023-04-04T08:24:09.975Z,1000.46
2023-04-04T08:25:10.024Z,1000.42
2023-04-04T08:26:09.943Z,1000.43
2023-04-04T08:27:09.911Z,1000.46
2023-04-04T08:28:10.073Z,1000.45
2023-04-04T08:29:09.957Z,1000.52
2023-04-04T08:30:09.940Z,1000.52
2023-04-04T08:31:09.939Z,1000.48
2023-04-04T08:32:09.925Z,1000.51
2023-04-04T08:33:09.874Z,1000.52
2023-04-04T08:34:09.906Z,1000.46
2023-04-04T08:35:09.941Z,1000.54
2023-04-04T08:36:09.897Z,1000.49
2023-04-04T08:37:09.843Z,1000.46
2023-04-04T08:38:09.832Z,1000.46
2023-04-04T08:39:09.797Z,1000.49
2023-04-04T08:40:09.862Z,1000.47
2023-04-04T08:41:09.855Z,1000.50
2023-04-04T08:42:09.783Z,1000.57
2023-04-04T08:43:09.794Z,1000.52
2023-04-04T08:44:09.842Z,1000.52
2023-04-04T08:45:09.754Z,1000.53
2023-04-04T08:46:11.382Z,1000.53
2023-04-04T08:47:09.845Z,1000.52
2023-04-04T08:48:09.728Z,1000.54
2023-04-04T08:49:09.760Z,1000.51
2023-04-04T08:50:09.850Z,1000.48
2023-04-04T08:51:09.715Z,1000.49
2023-04-04T08:52:09.923Z,1000.60
2023-04-04T08:53:09.728Z,1000.55
2023-04-04T08:54:09.675Z,1000.47
2023-04-04T08:55:09.685Z,1000.45
2023-04-04T08:56:09.683Z,1000.48
2023-04-04T08:57:09.652Z,1000.45
2023-04-04T08:58:09.624Z,1000.48
2023-04-04T08:59:09.864Z,1000.52
2023-04-04T09:00:09.818Z,1000.44
2023-04-04T09:01:09.675Z,1000.45
2023-04-04T09:02:09.773Z,1000.48
2023-04-04T09:03:09.644Z,1000.47
2023-04-04T09:04:09.589Z,1000.49
2023-04-04T09:05:09.647Z,1000.52
2023-04-04T09:06:09.566Z,1000.59
2023-04-04T09:07:09.560Z,1000.56
2023-04-04T09:08:09.637Z,1000.59
2023-04-04T09:09:09.536Z,1000.52
2023-04-04T09:10:09.562Z,1000.58
2023-04-04T09:11:09.614Z,1000.58
2023-04-04T09:12:09.516Z,1000.60
2023-04-04T09:13:15.983Z,1000.59
2023-04-04T09:14:11.560Z,1000.52
2023-04-04T09:15:09.498Z,1000.52
2023-04-04T09:16:09.482Z,1000.50
2023-04-04T09:17:09.474Z,1000.46
2023-04-04T09:18:09.518Z,1000.55
2023-04-04T09:19:09.443Z,1000.51
2023-04-04T09:20:09.484Z,1000.55
2023-04-04T09:21:09.417Z,1000.58
2023-04-04T09:22:09.439Z,1000.53
2023-04-04T09:23:09.404Z,1000.47
2023-04-04T09:24:09.422Z,1000.56
2023-04-04T09:25:09.372Z,1000.47
2023-04-04T09:26:09.417Z,1000.40
2023-04-04T09:27:09.397Z,1000.43
2023-04-04T09:28:09.388Z,1000.41
2023-04-04T09:29:09.372Z,1000.52
2023-04-04T09:30:09.358Z,1000.45
2023-04-04T09:31:09.301Z,1000.48
2023-04-04T09:32:09.336Z,1000.45
2023-04-04T09:33:09.323Z,1000.46
2023-04-04T09:34:09.313Z,1000.48
2023-04-04T09:35:09.345Z,1000.45
2023-04-04T09:36:09.346Z,1000.48
2023-04-04T09:37:09.253Z,1000.51
2023-04-04T09:38:09.266Z,1000.50
2023-04-04T09:39:09.287Z,1000.50
2023-04-04T09:40:09.283Z,1000.47
2023-04-04T09:41:09.257Z,1000.49
2023-04-04T09:42:09.269Z,1000.44
2023-04-04T09:43:09.226Z,1000.45
2023-04-04T09:44:09.208Z,1000.44
2023-04-04T09:45:10.530Z,1000.43
2023-04-04T09:46:09.238Z,1000.49
2023-04-04T09:47:10.492Z,1000.58
2023-04-04T09:48:09.247Z,1000.51
2023-04-04T09:49:11.330Z,1000.46
2023-04-04T09:50:09.206Z,1000.46
2023-04-04T09:51:09.260Z,1000.62
2023-04-04T09:52:10.144Z,1000.60
2023-04-04T09:53:09.177Z,1000.54
2023-04-04T09:54:12.970Z,1000.55
2023-04-04T09:55:10.140Z,1000.53
2023-04-04T09:56:09.196Z,1000.50
2023-04-04T09:57:09.085Z,1000.48
2023-04-04T09:58:09.097Z,1000.45
2023-04-04T09:59:09.742Z,1000.44
2023-04-04T10:00:09.039Z,1000.50
2023-04-04T10:01:09.081Z,1000.50
2023-04-04T10:02:09.263Z,1000.49
2023-04-04T10:03:09.016Z,1000.45
2023-04-04T10:04:09.134Z,1000.46
2023-04-04T10:05:09.214Z,1000.39
2023-04-04T10:06:09.048Z,1000.41
2023-04-04T10:07:08.982Z,1000.45
2023-04-04T10:08:09.099Z,1000.42
2023-04-04T10:09:08.930Z,1000.47
2023-04-04T10:10:08.955Z,1000.35
2023-04-04T10:11:11.415Z,1000.38
2023-04-04T10:12:09.930Z,1000.38
2023-04-04T10:13:08.905Z,1000.39
2023-04-04T10:14:09.038Z,1000.40
2023-04-04T10:15:08.908Z,1000.33
2023-04-04T10:16:08.921Z,1000.40
2023-04-04T10:17:09.228Z,1000.33
2023-04-04T10:18:09.869Z,1000.35
2023-04-04T10:19:08.929Z,1000.41
2023-04-04T10:20:08.882Z,1000.38
2023-04-04T10:22:09.812Z,1000.34
2023-04-04T10:23:08.799Z,1000.31
2023-04-04T10:24:08.953Z,1000.32
2023-04-04T10:25:08.760Z,1000.35
2023-04-04T10:26:08.781Z,1000.30
2023-04-04T10:27:08.802Z,1000.25
2023-04-04T10:28:08.756Z,1000.28
2023-04-04T10:29:08.818Z,1000.27
2023-04-04T10:30:08.759Z,1000.19
2023-04-04T10:31:08.777Z,1000.17
2023-04-04T10:32:08.835Z,1000.25
2023-04-04T10:33:08.858Z,1000.36
2023-04-04T10:34:08.748Z,1000.27
2023-04-04T10:35:08.715Z,1000.28
2023-04-04T10:36:08.725Z,1000.37
2023-04-04T10:37:10.027Z,1000.27
2023-04-04T10:38:08.652Z,1000.32
2023-04-04T10:39:08.669Z,1000.35
2023-04-04T10:40:08.691Z,1000.26
2023-04-04T10:41:08.647Z,1000.24
2023-04-04T10:42:08.605Z,1000.25
2023-04-04T10:43:08.613Z,1000.32
2023-04-04T10:44:08.700Z,1000.22
2023-04-04T10:45:19.752Z,1000.15
2023-04-04T10:46:10.686Z,1000.21
2023-04-04T10:47:08.640Z,1000.15
2023-04-04T10:48:10.543Z,1000.18
2023-04-04T10:49:09.554Z,1000.20
2023-04-04T10:50:08.571Z,1000.24
2023-04-04T10:51:08.563Z,1000.28
2023-04-04T10:52:08.531Z,1000.25
2023-04-04T10:53:08.525Z,1000.29
2023-04-04T10:54:08.514Z,1000.15
2023-04-04T10:55:08.501Z,1000.16
2023-04-04T10:56:08.540Z,1000.13
2023-04-04T10:57:08.545Z,1000.14
2023-04-04T10:58:08.482Z,1000.15
2023-04-04T10:59:08.456Z,1000.01
2023-04-04T11:00:08.478Z,1000.05
2023-04-04T11:01:08.537Z,1000.00
2023-04-04T11:02:08.411Z,999.91
2023-04-04T11:03:08.469Z,1000.03
2023-04-04T11:04:08.470Z,999.87
2023-04-04T11:05:08.440Z,999.95
2023-04-04T11:06:08.389Z,999.92
2023-04-04T11:07:08.369Z,1000.03
2023-04-04T11:08:09.318Z,999.95
2023-04-04T11:09:08.401Z,999.95
2023-04-04T11:10:08.348Z,999.96
2023-04-04T11:11:21.842Z,999.99
2023-04-04T11:12:10.350Z,999.92
2023-04-04T11:13:12.709Z,999.93
2023-04-04T11:14:10.052Z,999.87
2023-04-04T11:15:08.328Z,999.84
2023-04-04T11:16:08.408Z,999.79
2023-04-04T11:17:08.271Z,999.77
2023-04-04T11:18:17.901Z,999.82
2023-04-04T11:19:09.238Z,999.82
2023-04-04T11:20:08.239Z,999.75
2023-04-04T11:21:08.284Z,999.78
2023-04-04T11:22:08.229Z,999.64
2023-04-04T11:23:08.256Z,999.79
2023-04-04T11:24:08.202Z,999.76
2023-04-04T11:25:08.183Z,999.66
2023-04-04T11:26:08.186Z,999.76
2023-04-04T11:27:08.203Z,999.73
2023-04-04T11:28:08.165Z,999.70
2023-04-04T11:29:08.217Z,999.68
2023-04-04T11:30:08.218Z,999.65
2023-04-04T11:31:08.145Z,999.67
2023-04-04T11:32:08.117Z,999.64
2023-04-04T11:33:08.443Z,999.70
2023-04-04T11:34:09.130Z,999.69
2023-04-04T11:35:08.101Z,999.68
2023-04-04T11:36:08.710Z,999.76
2023-04-04T11:37:09.136Z,999.76
2023-04-04T11:38:08.089Z,999.64
2023-04-04T11:39:08.031Z,999.69
2023-04-04T11:40:08.060Z,999.73
2023-04-04T11:41:08.089Z,999.62
2023-04-04T11:42:08.058Z,999.68
2023-04-04T11:43:08.078Z,999.70
2023-04-04T11:44:08.058Z,999.74
2023-04-04T11:45:08.010Z,999.65
2023-04-04T11:46:08.162Z,999.76
2023-04-04T11:47:07.995Z,999.72
2023-04-04T11:48:07.978Z,999.63
2023-04-04T11:49:07.957Z,999.65
2023-04-04T11:50:07.957Z,999.58
2023-04-04T11:51:07.923Z,999.50
2023-04-04T11:52:07.920Z,999.58
2023-04-04T11:53:07.909Z,999.65
2023-04-04T11:54:07.912Z,999.60
2023-04-04T11:55:07.936Z,999.62
2023-04-04T11:56:07.904Z,999.59
2023-04-04T11:57:07.875Z,999.61
2023-04-04T11:58:08.653Z,999.63
2023-04-04T11:59:11.645Z,999.69
2023-04-04T12:00:08.890Z,999.50
2023-04-04T12:01:07.967Z,999.60
2023-04-04T12:02:07.885Z,999.51
2023-04-04T12:03:08.001Z,999.49
2023-04-04T12:04:07.787Z,999.51
2023-04-04T12:05:07.904Z,999.41
2023-04-04T12:06:07.811Z,999.47
2023-04-04T12:07:07.813Z,999.52
2023-04-04T12:08:07.772Z,999.51
2023-04-04T12:09:07.754Z,999.45